sensor_id;sensor_type;location;lat;lon;timestamp;P1;durP1;ratioP1;P2;durP2;ratioP2
58472;SDS011;44775;51.564;5.460;2024-01-06T00:02:14;21.88;;;14.38;;
58472;SDS011;44775;51.564;5.460;2024-01-06T00:04:39;22.63;;;14.23;;
58472;SDS011;44775;51.564;5.460;2024-01-06T00:07:05;16.45;;;11.57;;
58472;SDS011;44775;51.564;5.460;2024-01-06T00:09:30;28.02;;;18.27;;
58472;SDS011;44775;51.564;5.460;2024-01-06T00:11:55;23.13;;;15.25;;
58472;SDS011;44775;51.564;5.460;2024-01-06T00:14:21;24.92;;;17.08;;
58472;SDS011;44775;51.564;5.460;2024-01-06T00:16:46;19.00;;;14.15;;
58472;SDS011;44775;51.564;5.460;2024-01-06T00:19:11;23.65;;;16.13;;
58472;SDS011;44775;51.564;5.460;2024-01-06T00:21:36;24.52;;;17.60;;
58472;SDS011;44775;51.564;5.460;2024-01-06T00:24:02;25.33;;;16.45;;
58472;SDS011;44775;51.564;5.460;2024-01-06T00:26:29;16.75;;;11.95;;
58472;SDS011;44775;51.564;5.460;2024-01-06T00:28:55;24.15;;;16.75;;
58472;SDS011;44775;51.564;5.460;2024-01-06T00:31:20;31.98;;;20.27;;
58472;SDS011;44775;51.564;5.460;2024-01-06T00:33:45;21.40;;;14.73;;
58472;SDS011;44775;51.564;5.460;2024-01-06T00:36:11;19.35;;;13.80;;
58472;SDS011;44775;51.564;5.460;2024-01-06T00:38:37;22.90;;;15.40;;
58472;SDS011;44775;51.564;5.460;2024-01-06T00:41:02;29.70;;;19.25;;
58472;SDS011;44775;51.564;5.460;2024-01-06T00:43:27;30.48;;;19.70;;
58472;SDS011;44775;51.564;5.460;2024-01-06T00:45:53;21.52;;;13.27;;
58472;SDS011;44775;51.564;5.460;2024-01-06T00:48:18;20.02;;;13.95;;
58472;SDS011;44775;51.564;5.460;2024-01-06T00:50:43;23.55;;;15.20;;
58472;SDS011;44775;51.564;5.460;2024-01-06T00:53:09;24.85;;;15.75;;
58472;SDS011;44775;51.564;5.460;2024-01-06T00:55:34;33.70;;;19.88;;
58472;SDS011;44775;51.564;5.460;2024-01-06T00:57:59;29.77;;;18.05;;
58472;SDS011;44775;51.564;5.460;2024-01-06T01:00:25;24.25;;;15.60;;
58472;SDS011;44775;51.564;5.460;2024-01-06T01:02:52;14.25;;;10.57;;
58472;SDS011;44775;51.564;5.460;2024-01-06T01:05:17;19.67;;;13.98;;
58472;SDS011;44775;51.564;5.460;2024-01-06T01:07:42;33.88;;;20.90;;
58472;SDS011;44775;51.564;5.460;2024-01-06T01:10:08;20.20;;;13.60;;
58472;SDS011;44775;51.564;5.460;2024-01-06T01:12:34;32.50;;;19.45;;
58472;SDS011;44775;51.564;5.460;2024-01-06T01:15:00;22.58;;;15.32;;
58472;SDS011;44775;51.564;5.460;2024-01-06T01:17:25;33.63;;;20.92;;
58472;SDS011;44775;51.564;5.460;2024-01-06T01:19:50;35.20;;;20.73;;
58472;SDS011;44775;51.564;5.460;2024-01-06T01:22:16;26.45;;;16.45;;
58472;SDS011;44775;51.564;5.460;2024-01-06T01:24:41;25.17;;;16.23;;
58472;SDS011;44775;51.564;5.460;2024-01-06T01:27:07;25.27;;;16.80;;
58472;SDS011;44775;51.564;5.460;2024-01-06T01:29:32;13.95;;;9.40;;
58472;SDS011;44775;51.564;5.460;2024-01-06T01:31:57;24.67;;;15.20;;
58472;SDS011;44775;51.564;5.460;2024-01-06T01:34:23;24.92;;;14.85;;
58472;SDS011;44775;51.564;5.460;2024-01-06T01:36:48;17.77;;;11.35;;
58472;SDS011;44775;51.564;5.460;2024-01-06T01:39:13;26.63;;;16.65;;
58472;SDS011;44775;51.564;5.460;2024-01-06T01:41:39;19.20;;;12.57;;
58472;SDS011;44775;51.564;5.460;2024-01-06T01:44:05;18.17;;;12.27;;
58472;SDS011;44775;51.564;5.460;2024-01-06T01:46:30;24.00;;;15.60;;
58472;SDS011;44775;51.564;5.460;2024-01-06T01:48:56;16.83;;;11.20;;
58472;SDS011;44775;51.564;5.460;2024-01-06T01:51:24;19.27;;;12.55;;
58472;SDS011;44775;51.564;5.460;2024-01-06T01:53:54;21.58;;;14.63;;
58472;SDS011;44775;51.564;5.460;2024-01-06T01:56:22;23.00;;;15.30;;
58472;SDS011;44775;51.564;5.460;2024-01-06T01:58:47;23.35;;;14.57;;
58472;SDS011;44775;51.564;5.460;2024-01-06T02:01:13;18.83;;;11.90;;
58472;SDS011;44775;51.564;5.460;2024-01-06T02:03:40;15.43;;;10.75;;
58472;SDS011;44775;51.564;5.460;2024-01-06T02:06:06;18.83;;;12.88;;
58472;SDS011;44775;51.564;5.460;2024-01-06T02:08:31;18.95;;;12.50;;
58472;SDS011;44775;51.564;5.460;2024-01-06T02:10:56;21.90;;;14.40;;
58472;SDS011;44775;51.564;5.460;2024-01-06T02:13:22;13.88;;;10.10;;
58472;SDS011;44775;51.564;5.460;2024-01-06T02:15:48;21.00;;;14.32;;
58472;SDS011;44775;51.564;5.460;2024-01-06T02:18:14;17.30;;;11.65;;
58472;SDS011;44775;51.564;5.460;2024-01-06T02:20:40;12.65;;;9.30;;
58472;SDS011;44775;51.564;5.460;2024-01-06T02:23:08;10.63;;;8.52;;
58472;SDS011;44775;51.564;5.460;2024-01-06T02:25:34;16.77;;;11.90;;
58472;SDS011;44775;51.564;5.460;2024-01-06T02:28:00;14.80;;;10.43;;
58472;SDS011;44775;51.564;5.460;2024-01-06T02:30:25;14.80;;;10.70;;
58472;SDS011;44775;51.564;5.460;2024-01-06T02:32:50;15.23;;;10.50;;
58472;SDS011;44775;51.564;5.460;2024-01-06T02:35:16;18.83;;;13.07;;
58472;SDS011;44775;51.564;5.460;2024-01-06T02:37:41;15.18;;;10.25;;
58472;SDS011;44775;51.564;5.460;2024-01-06T02:40:07;17.63;;;12.27;;
58472;SDS011;44775;51.564;5.460;2024-01-06T02:42:33;16.50;;;10.95;;
58472;SDS011;44775;51.564;5.460;2024-01-06T02:44:58;16.65;;;11.15;;
58472;SDS011;44775;51.564;5.460;2024-01-06T02:47:23;11.95;;;8.68;;
58472;SDS011;44775;51.564;5.460;2024-01-06T02:49:48;13.57;;;9.38;;
58472;SDS011;44775;51.564;5.460;2024-01-06T02:52:14;13.73;;;9.65;;
58472;SDS011;44775;51.564;5.460;2024-01-06T02:54:39;17.35;;;11.93;;
58472;SDS011;44775;51.564;5.460;2024-01-06T02:57:05;11.15;;;7.55;;
58472;SDS011;44775;51.564;5.460;2024-01-06T02:59:30;14.15;;;10.65;;
58472;SDS011;44775;51.564;5.460;2024-01-06T03:01:55;14.98;;;10.30;;
58472;SDS011;44775;51.564;5.460;2024-01-06T03:04:20;12.65;;;8.98;;
58472;SDS011;44775;51.564;5.460;2024-01-06T03:06:46;10.90;;;7.88;;
58472;SDS011;44775;51.564;5.460;2024-01-06T03:09:16;11.88;;;8.95;;
58472;SDS011;44775;51.564;5.460;2024-01-06T03:11:42;12.93;;;9.50;;
58472;SDS011;44775;51.564;5.460;2024-01-06T03:14:07;9.88;;;7.82;;
58472;SDS011;44775;51.564;5.460;2024-01-06T03:16:32;11.73;;;7.75;;
58472;SDS011;44775;51.564;5.460;2024-01-06T03:18:58;11.68;;;8.80;;
58472;SDS011;44775;51.564;5.460;2024-01-06T03:21:24;10.98;;;8.45;;
58472;SDS011;44775;51.564;5.460;2024-01-06T03:23:51;12.27;;;9.07;;
58472;SDS011;44775;51.564;5.460;2024-01-06T03:26:17;12.88;;;9.05;;
58472;SDS011;44775;51.564;5.460;2024-01-06T03:28:42;11.27;;;8.23;;
58472;SDS011;44775;51.564;5.460;2024-01-06T03:31:08;11.27;;;8.75;;
58472;SDS011;44775;51.564;5.460;2024-01-06T03:33:33;8.15;;;6.65;;
58472;SDS011;44775;51.564;5.460;2024-01-06T03:35:58;10.77;;;8.30;;
58472;SDS011;44775;51.564;5.460;2024-01-06T03:38:28;10.90;;;8.30;;
58472;SDS011;44775;51.564;5.460;2024-01-06T03:40:53;8.77;;;6.60;;
58472;SDS011;44775;51.564;5.460;2024-01-06T03:43:19;8.68;;;7.43;;
58472;SDS011;44775;51.564;5.460;2024-01-06T03:45:44;10.25;;;7.97;;
58472;SDS011;44775;51.564;5.460;2024-01-06T03:48:09;8.23;;;6.45;;
58472;SDS011;44775;51.564;5.460;2024-01-06T03:50:35;8.85;;;7.18;;
58472;SDS011;44775;51.564;5.460;2024-01-06T03:53:00;10.35;;;8.50;;
58472;SDS011;44775;51.564;5.460;2024-01-06T03:55:25;11.57;;;9.00;;
58472;SDS011;44775;51.564;5.460;2024-01-06T03:57:50;12.35;;;9.85;;
58472;SDS011;44775;51.564;5.460;2024-01-06T04:00:16;8.68;;;6.68;;
58472;SDS011;44775;51.564;5.460;2024-01-06T04:02:42;10.18;;;8.05;;
58472;SDS011;44775;51.564;5.460;2024-01-06T04:05:07;12.07;;;9.70;;
58472;SDS011;44775;51.564;5.460;2024-01-06T04:07:32;10.02;;;8.70;;
58472;SDS011;44775;51.564;5.460;2024-01-06T04:09:57;11.95;;;10.23;;
58472;SDS011;44775;51.564;5.460;2024-01-06T04:12:23;9.65;;;7.38;;
58472;SDS011;44775;51.564;5.460;2024-01-06T04:14:48;11.55;;;9.85;;
58472;SDS011;44775;51.564;5.460;2024-01-06T04:17:13;9.05;;;7.47;;
58472;SDS011;44775;51.564;5.460;2024-01-06T04:19:38;11.57;;;9.32;;
58472;SDS011;44775;51.564;5.460;2024-01-06T04:22:04;11.07;;;9.45;;
58472;SDS011;44775;51.564;5.460;2024-01-06T04:24:29;12.85;;;10.32;;
58472;SDS011;44775;51.564;5.460;2024-01-06T04:26:55;9.27;;;8.20;;
58472;SDS011;44775;51.564;5.460;2024-01-06T04:29:20;8.68;;;7.63;;
58472;SDS011;44775;51.564;5.460;2024-01-06T04:31:46;12.35;;;9.20;;
58472;SDS011;44775;51.564;5.460;2024-01-06T04:34:11;11.35;;;8.90;;
58472;SDS011;44775;51.564;5.460;2024-01-06T04:36:36;10.73;;;8.88;;
58472;SDS011;44775;51.564;5.460;2024-01-06T04:39:02;13.77;;;10.13;;
58472;SDS011;44775;51.564;5.460;2024-01-06T04:41:27;14.27;;;10.55;;
58472;SDS011;44775;51.564;5.460;2024-01-06T04:43:52;13.18;;;10.18;;
58472;SDS011;44775;51.564;5.460;2024-01-06T04:46:18;12.65;;;10.25;;
58472;SDS011;44775;51.564;5.460;2024-01-06T04:48:43;10.32;;;7.85;;
58472;SDS011;44775;51.564;5.460;2024-01-06T04:51:09;12.38;;;9.52;;
58472;SDS011;44775;51.564;5.460;2024-01-06T04:53:35;14.15;;;11.23;;
58472;SDS011;44775;51.564;5.460;2024-01-06T04:56:01;13.18;;;9.98;;
58472;SDS011;44775;51.564;5.460;2024-01-06T04:58:26;14.68;;;11.50;;
58472;SDS011;44775;51.564;5.460;2024-01-06T05:00:52;10.65;;;8.25;;
58472;SDS011;44775;51.564;5.460;2024-01-06T05:03:17;16.02;;;11.60;;
58472;SDS011;44775;51.564;5.460;2024-01-06T05:05:43;14.20;;;9.95;;
58472;SDS011;44775;51.564;5.460;2024-01-06T05:08:08;6.40;;;5.47;;
58472;SDS011;44775;51.564;5.460;2024-01-06T05:10:34;7.45;;;6.20;;
58472;SDS011;44775;51.564;5.460;2024-01-06T05:12:59;11.25;;;8.38;;
58472;SDS011;44775;51.564;5.460;2024-01-06T05:15:24;10.60;;;7.60;;
58472;SDS011;44775;51.564;5.460;2024-01-06T05:17:50;11.80;;;9.48;;
58472;SDS011;44775;51.564;5.460;2024-01-06T05:20:15;11.18;;;9.27;;
58472;SDS011;44775;51.564;5.460;2024-01-06T05:22:40;9.35;;;8.23;;
58472;SDS011;44775;51.564;5.460;2024-01-06T05:25:05;7.88;;;6.20;;
58472;SDS011;44775;51.564;5.460;2024-01-06T05:27:31;8.77;;;7.50;;
58472;SDS011;44775;51.564;5.460;2024-01-06T05:29:56;8.88;;;7.57;;
58472;SDS011;44775;51.564;5.460;2024-01-06T05:32:21;11.13;;;8.32;;
58472;SDS011;44775;51.564;5.460;2024-01-06T05:34:48;12.00;;;8.95;;
58472;SDS011;44775;51.564;5.460;2024-01-06T05:37:13;11.23;;;8.38;;
58472;SDS011;44775;51.564;5.460;2024-01-06T05:39:39;8.50;;;6.95;;
58472;SDS011;44775;51.564;5.460;2024-01-06T05:42:08;7.22;;;5.97;;
58472;SDS011;44775;51.564;5.460;2024-01-06T05:44:36;7.47;;;6.13;;
58472;SDS011;44775;51.564;5.460;2024-01-06T05:47:02;8.77;;;6.90;;
58472;SDS011;44775;51.564;5.460;2024-01-06T05:49:27;11.85;;;9.02;;
58472;SDS011;44775;51.564;5.460;2024-01-06T05:51:53;11.00;;;8.52;;
58472;SDS011;44775;51.564;5.460;2024-01-06T05:54:18;9.85;;;7.22;;
58472;SDS011;44775;51.564;5.460;2024-01-06T05:56:43;13.80;;;9.52;;
58472;SDS011;44775;51.564;5.460;2024-01-06T05:59:08;13.05;;;9.55;;
58472;SDS011;44775;51.564;5.460;2024-01-06T06:01:34;12.30;;;8.50;;
58472;SDS011;44775;51.564;5.460;2024-01-06T06:03:59;9.77;;;6.72;;
58472;SDS011;44775;51.564;5.460;2024-01-06T06:06:24;10.68;;;7.40;;
58472;SDS011;44775;51.564;5.460;2024-01-06T06:08:49;9.77;;;7.35;;
58472;SDS011;44775;51.564;5.460;2024-01-06T06:11:15;7.30;;;6.03;;
58472;SDS011;44775;51.564;5.460;2024-01-06T06:13:41;7.88;;;6.25;;
58472;SDS011;44775;51.564;5.460;2024-01-06T06:16:08;11.73;;;8.27;;
58472;SDS011;44775;51.564;5.460;2024-01-06T06:18:34;9.70;;;7.80;;
58472;SDS011;44775;51.564;5.460;2024-01-06T06:21:00;10.73;;;8.55;;
58472;SDS011;44775;51.564;5.460;2024-01-06T06:23:26;11.35;;;7.55;;
58472;SDS011;44775;51.564;5.460;2024-01-06T06:25:53;10.50;;;8.07;;
58472;SDS011;44775;51.564;5.460;2024-01-06T06:28:19;9.20;;;7.57;;
58472;SDS011;44775;51.564;5.460;2024-01-06T06:30:44;9.20;;;6.80;;
58472;SDS011;44775;51.564;5.460;2024-01-06T06:33:09;9.30;;;7.35;;
58472;SDS011;44775;51.564;5.460;2024-01-06T06:35:34;9.95;;;7.45;;
58472;SDS011;44775;51.564;5.460;2024-01-06T06:38:00;11.23;;;8.35;;
58472;SDS011;44775;51.564;5.460;2024-01-06T06:40:25;9.07;;;7.20;;
58472;SDS011;44775;51.564;5.460;2024-01-06T06:42:50;10.07;;;7.45;;
58472;SDS011;44775;51.564;5.460;2024-01-06T06:45:16;11.57;;;9.23;;
58472;SDS011;44775;51.564;5.460;2024-01-06T06:47:41;8.70;;;7.28;;
58472;SDS011;44775;51.564;5.460;2024-01-06T06:50:06;12.40;;;9.82;;
58472;SDS011;44775;51.564;5.460;2024-01-06T06:52:32;9.73;;;7.35;;
58472;SDS011;44775;51.564;5.460;2024-01-06T06:54:57;13.77;;;9.68;;
58472;SDS011;44775;51.564;5.460;2024-01-06T06:57:23;9.80;;;8.02;;
58472;SDS011;44775;51.564;5.460;2024-01-06T06:59:49;14.82;;;10.75;;
58472;SDS011;44775;51.564;5.460;2024-01-06T07:02:14;13.65;;;10.63;;
58472;SDS011;44775;51.564;5.460;2024-01-06T07:04:40;14.98;;;10.27;;
58472;SDS011;44775;51.564;5.460;2024-01-06T07:07:05;12.07;;;9.02;;
58472;SDS011;44775;51.564;5.460;2024-01-06T07:09:30;13.98;;;9.30;;
58472;SDS011;44775;51.564;5.460;2024-01-06T07:11:55;13.35;;;9.70;;
58472;SDS011;44775;51.564;5.460;2024-01-06T07:14:22;10.35;;;7.10;;
58472;SDS011;44775;51.564;5.460;2024-01-06T07:16:47;11.40;;;8.82;;
58472;SDS011;44775;51.564;5.460;2024-01-06T07:19:12;11.90;;;7.72;;
58472;SDS011;44775;51.564;5.460;2024-01-06T07:21:38;13.18;;;9.45;;
58472;SDS011;44775;51.564;5.460;2024-01-06T07:24:03;8.07;;;6.18;;
58472;SDS011;44775;51.564;5.460;2024-01-06T07:26:28;16.00;;;11.40;;
58472;SDS011;44775;51.564;5.460;2024-01-06T07:28:54;13.32;;;9.15;;
58472;SDS011;44775;51.564;5.460;2024-01-06T07:31:19;9.05;;;7.30;;
58472;SDS011;44775;51.564;5.460;2024-01-06T07:33:45;13.77;;;9.52;;
58472;SDS011;44775;51.564;5.460;2024-01-06T07:36:10;10.93;;;7.85;;
58472;SDS011;44775;51.564;5.460;2024-01-06T07:38:35;10.43;;;8.05;;
58472;SDS011;44775;51.564;5.460;2024-01-06T07:41:01;13.18;;;8.75;;
58472;SDS011;44775;51.564;5.460;2024-01-06T07:43:27;6.07;;;4.65;;
58472;SDS011;44775;51.564;5.460;2024-01-06T07:45:52;9.18;;;6.78;;
58472;SDS011;44775;51.564;5.460;2024-01-06T07:48:17;14.02;;;9.63;;
58472;SDS011;44775;51.564;5.460;2024-01-06T07:50:42;14.50;;;10.93;;
58472;SDS011;44775;51.564;5.460;2024-01-06T07:53:08;7.70;;;5.75;;
58472;SDS011;44775;51.564;5.460;2024-01-06T07:55:33;9.43;;;5.95;;
58472;SDS011;44775;51.564;5.460;2024-01-06T07:57:59;9.63;;;6.53;;
58472;SDS011;44775;51.564;5.460;2024-01-06T08:00:24;17.63;;;11.50;;
58472;SDS011;44775;51.564;5.460;2024-01-06T08:02:49;15.05;;;9.68;;
58472;SDS011;44775;51.564;5.460;2024-01-06T08:05:15;15.43;;;10.90;;
58472;SDS011;44775;51.564;5.460;2024-01-06T08:07:40;10.85;;;7.65;;
58472;SDS011;44775;51.564;5.460;2024-01-06T08:10:05;8.77;;;6.63;;
58472;SDS011;44775;51.564;5.460;2024-01-06T08:12:31;9.73;;;7.18;;
58472;SDS011;44775;51.564;5.460;2024-01-06T08:14:57;11.65;;;8.65;;
58472;SDS011;44775;51.564;5.460;2024-01-06T08:17:24;17.65;;;11.90;;
58472;SDS011;44775;51.564;5.460;2024-01-06T08:19:49;10.60;;;7.18;;
58472;SDS011;44775;51.564;5.460;2024-01-06T08:22:15;11.55;;;7.60;;
58472;SDS011;44775;51.564;5.460;2024-01-06T08:24:40;14.65;;;9.38;;
58472;SDS011;44775;51.564;5.460;2024-01-06T08:27:05;17.60;;;12.82;;
58472;SDS011;44775;51.564;5.460;2024-01-06T08:29:31;15.20;;;10.68;;
58472;SDS011;44775;51.564;5.460;2024-01-06T08:31:56;6.72;;;5.57;;
58472;SDS011;44775;51.564;5.460;2024-01-06T08:34:22;16.88;;;11.45;;
58472;SDS011;44775;51.564;5.460;2024-01-06T08:36:47;12.57;;;8.65;;
58472;SDS011;44775;51.564;5.460;2024-01-06T08:39:13;16.45;;;12.10;;
58472;SDS011;44775;51.564;5.460;2024-01-06T08:41:38;17.23;;;12.02;;
58472;SDS011;44775;51.564;5.460;2024-01-06T08:44:04;18.13;;;11.60;;
58472;SDS011;44775;51.564;5.460;2024-01-06T08:46:29;9.25;;;6.70;;
58472;SDS011;44775;51.564;5.460;2024-01-06T08:48:55;9.82;;;7.35;;
58472;SDS011;44775;51.564;5.460;2024-01-06T08:51:21;14.38;;;11.20;;
58472;SDS011;44775;51.564;5.460;2024-01-06T08:53:46;16.08;;;10.98;;
58472;SDS011;44775;51.564;5.460;2024-01-06T08:56:11;19.30;;;12.30;;
58472;SDS011;44775;51.564;5.460;2024-01-06T08:58:37;16.58;;;11.57;;
58472;SDS011;44775;51.564;5.460;2024-01-06T09:01:02;18.60;;;12.38;;
58472;SDS011;44775;51.564;5.460;2024-01-06T09:03:28;18.35;;;13.00;;
58472;SDS011;44775;51.564;5.460;2024-01-06T09:05:55;9.13;;;7.03;;
58472;SDS011;44775;51.564;5.460;2024-01-06T09:08:21;8.40;;;6.43;;
58472;SDS011;44775;51.564;5.460;2024-01-06T09:10:46;13.45;;;9.65;;
58472;SDS011;44775;51.564;5.460;2024-01-06T09:13:11;17.83;;;11.50;;
58472;SDS011;44775;51.564;5.460;2024-01-06T09:15:36;13.48;;;9.30;;
58472;SDS011;44775;51.564;5.460;2024-01-06T09:18:02;15.30;;;10.10;;
58472;SDS011;44775;51.564;5.460;2024-01-06T09:20:27;13.98;;;10.25;;
58472;SDS011;44775;51.564;5.460;2024-01-06T09:22:53;12.10;;;8.52;;
58472;SDS011;44775;51.564;5.460;2024-01-06T09:25:18;11.63;;;9.20;;
58472;SDS011;44775;51.564;5.460;2024-01-06T09:27:44;14.38;;;11.63;;
58472;SDS011;44775;51.564;5.460;2024-01-06T09:30:09;8.82;;;6.95;;
58472;SDS011;44775;51.564;5.460;2024-01-06T09:32:36;16.13;;;12.20;;
58472;SDS011;44775;51.564;5.460;2024-01-06T09:35:01;5.47;;;4.55;;
58472;SDS011;44775;51.564;5.460;2024-01-06T09:37:26;7.90;;;6.28;;
58472;SDS011;44775;51.564;5.460;2024-01-06T09:39:51;12.68;;;9.27;;
58472;SDS011;44775;51.564;5.460;2024-01-06T09:42:17;8.63;;;6.70;;
58472;SDS011;44775;51.564;5.460;2024-01-06T09:44:42;6.55;;;4.70;;
58472;SDS011;44775;51.564;5.460;2024-01-06T09:47:08;10.98;;;8.57;;
58472;SDS011;44775;51.564;5.460;2024-01-06T09:49:38;6.65;;;5.82;;
58472;SDS011;44775;51.564;5.460;2024-01-06T09:52:08;5.80;;;4.93;;
58472;SDS011;44775;51.564;5.460;2024-01-06T09:54:41;6.82;;;5.95;;
58472;SDS011;44775;51.564;5.460;2024-01-06T09:57:13;6.45;;;5.53;;
58472;SDS011;44775;51.564;5.460;2024-01-06T09:59:39;8.00;;;6.38;;
58472;SDS011;44775;51.564;5.460;2024-01-06T10:02:07;5.95;;;5.22;;
58472;SDS011;44775;51.564;5.460;2024-01-06T10:04:33;7.57;;;5.30;;
58472;SDS011;44775;51.564;5.460;2024-01-06T10:06:58;8.57;;;7.00;;
58472;SDS011;44775;51.564;5.460;2024-01-06T10:09:27;11.38;;;8.75;;
58472;SDS011;44775;51.564;5.460;2024-01-06T10:11:56;8.88;;;6.50;;
58472;SDS011;44775;51.564;5.460;2024-01-06T10:14:23;7.95;;;6.75;;
58472;SDS011;44775;51.564;5.460;2024-01-06T10:16:49;7.00;;;5.63;;
58472;SDS011;44775;51.564;5.460;2024-01-06T10:19:15;8.00;;;6.53;;
58472;SDS011;44775;51.564;5.460;2024-01-06T10:21:41;13.05;;;10.65;;
58472;SDS011;44775;51.564;5.460;2024-01-06T10:24:09;12.38;;;8.70;;
58472;SDS011;44775;51.564;5.460;2024-01-06T10:26:34;9.05;;;7.50;;
58472;SDS011;44775;51.564;5.460;2024-01-06T10:29:00;7.57;;;5.40;;
58472;SDS011;44775;51.564;5.460;2024-01-06T10:31:29;7.93;;;6.15;;
58472;SDS011;44775;51.564;5.460;2024-01-06T10:33:54;9.13;;;7.25;;
58472;SDS011;44775;51.564;5.460;2024-01-06T10:36:20;9.30;;;6.15;;
58472;SDS011;44775;51.564;5.460;2024-01-06T10:38:47;9.73;;;6.53;;
58472;SDS011;44775;51.564;5.460;2024-01-06T10:41:13;7.28;;;5.85;;
58472;SDS011;44775;51.564;5.460;2024-01-06T10:43:41;12.70;;;9.07;;
58472;SDS011;44775;51.564;5.460;2024-01-06T10:46:08;10.57;;;9.00;;
58472;SDS011;44775;51.564;5.460;2024-01-06T10:51:03;13.60;;;10.15;;
58472;SDS011;44775;51.564;5.460;2024-01-06T10:55:58;11.60;;;10.07;;
58472;SDS011;44775;51.564;5.460;2024-01-06T10:58:24;12.93;;;10.20;;
58472;SDS011;44775;51.564;5.460;2024-01-06T11:00:49;7.45;;;5.38;;
58472;SDS011;44775;51.564;5.460;2024-01-06T11:03:15;6.65;;;5.03;;
58472;SDS011;44775;51.564;5.460;2024-01-06T11:05:42;6.25;;;4.53;;
58472;SDS011;44775;51.564;5.460;2024-01-06T11:08:10;8.38;;;6.25;;
58472;SDS011;44775;51.564;5.460;2024-01-06T11:10:36;12.68;;;9.30;;
58472;SDS011;44775;51.564;5.460;2024-01-06T11:13:10;9.55;;;7.15;;
58472;SDS011;44775;51.564;5.460;2024-01-06T11:15:45;8.73;;;6.50;;
58472;SDS011;44775;51.564;5.460;2024-01-06T11:26:43;7.53;;;6.38;;
58472;SDS011;44775;51.564;5.460;2024-01-06T11:29:10;9.63;;;7.22;;
58472;SDS011;44775;51.564;5.460;2024-01-06T11:31:36;10.15;;;7.70;;
58472;SDS011;44775;51.564;5.460;2024-01-06T11:34:17;5.30;;;4.30;;
58472;SDS011;44775;51.564;5.460;2024-01-06T11:36:44;7.78;;;5.60;;
58472;SDS011;44775;51.564;5.460;2024-01-06T11:39:34;10.25;;;8.60;;
58472;SDS011;44775;51.564;5.460;2024-01-06T11:42:05;8.23;;;6.40;;
58472;SDS011;44775;51.564;5.460;2024-01-06T11:44:34;9.98;;;7.53;;
58472;SDS011;44775;51.564;5.460;2024-01-06T11:47:01;12.73;;;9.60;;
58472;SDS011;44775;51.564;5.460;2024-01-06T11:49:29;8.25;;;5.20;;
58472;SDS011;44775;51.564;5.460;2024-01-06T11:51:54;11.77;;;9.23;;
58472;SDS011;44775;51.564;5.460;2024-01-06T11:54:21;10.90;;;8.18;;
58472;SDS011;44775;51.564;5.460;2024-01-06T11:56:46;10.32;;;7.60;;
58472;SDS011;44775;51.564;5.460;2024-01-06T11:59:12;10.98;;;7.60;;
58472;SDS011;44775;51.564;5.460;2024-01-06T12:01:37;6.97;;;5.65;;
58472;SDS011;44775;51.564;5.460;2024-01-06T12:04:04;10.32;;;8.32;;
58472;SDS011;44775;51.564;5.460;2024-01-06T12:06:30;11.07;;;8.93;;
58472;SDS011;44775;51.564;5.460;2024-01-06T12:11:31;8.77;;;7.20;;
58472;SDS011;44775;51.564;5.460;2024-01-06T12:13:56;8.70;;;6.93;;
58472;SDS011;44775;51.564;5.460;2024-01-06T12:16:22;8.45;;;6.75;;
58472;SDS011;44775;51.564;5.460;2024-01-06T12:18:47;6.95;;;4.78;;
58472;SDS011;44775;51.564;5.460;2024-01-06T12:21:13;6.30;;;4.47;;
58472;SDS011;44775;51.564;5.460;2024-01-06T12:23:38;10.68;;;7.35;;
58472;SDS011;44775;51.564;5.460;2024-01-06T12:26:03;5.55;;;4.80;;
58472;SDS011;44775;51.564;5.460;2024-01-06T12:28:29;7.75;;;6.47;;
58472;SDS011;44775;51.564;5.460;2024-01-06T12:30:54;6.55;;;5.65;;
58472;SDS011;44775;51.564;5.460;2024-01-06T12:33:20;9.93;;;7.85;;
58472;SDS011;44775;51.564;5.460;2024-01-06T12:35:45;12.95;;;8.82;;
58472;SDS011;44775;51.564;5.460;2024-01-06T12:38:10;12.43;;;9.20;;
58472;SDS011;44775;51.564;5.460;2024-01-06T12:40:36;5.57;;;4.35;;
58472;SDS011;44775;51.564;5.460;2024-01-06T12:43:03;9.40;;;6.63;;
58472;SDS011;44775;51.564;5.460;2024-01-06T12:45:29;12.02;;;8.50;;
58472;SDS011;44775;51.564;5.460;2024-01-06T12:47:54;11.10;;;9.65;;
58472;SDS011;44775;51.564;5.460;2024-01-06T12:50:19;12.25;;;10.15;;
58472;SDS011;44775;51.564;5.460;2024-01-06T12:52:45;12.82;;;9.63;;
58472;SDS011;44775;51.564;5.460;2024-01-06T12:55:11;9.63;;;7.68;;
58472;SDS011;44775;51.564;5.460;2024-01-06T12:57:36;8.77;;;6.88;;
58472;SDS011;44775;51.564;5.460;2024-01-06T13:00:01;13.43;;;10.35;;
58472;SDS011;44775;51.564;5.460;2024-01-06T13:02:28;14.82;;;11.07;;
58472;SDS011;44775;51.564;5.460;2024-01-06T13:04:53;7.85;;;6.38;;
58472;SDS011;44775;51.564;5.460;2024-01-06T13:07:20;7.75;;;6.38;;
58472;SDS011;44775;51.564;5.460;2024-01-06T13:09:45;5.88;;;4.95;;
58472;SDS011;44775;51.564;5.460;2024-01-06T13:12:10;9.02;;;8.00;;
58472;SDS011;44775;51.564;5.460;2024-01-06T13:14:35;6.68;;;5.63;;
58472;SDS011;44775;51.564;5.460;2024-01-06T13:17:01;8.05;;;6.43;;
58472;SDS011;44775;51.564;5.460;2024-01-06T13:19:27;9.93;;;8.43;;
58472;SDS011;44775;51.564;5.460;2024-01-06T13:21:52;5.07;;;4.47;;
58472;SDS011;44775;51.564;5.460;2024-01-06T13:24:17;11.13;;;8.38;;
58472;SDS011;44775;51.564;5.460;2024-01-06T13:26:43;6.75;;;5.75;;
58472;SDS011;44775;51.564;5.460;2024-01-06T13:29:21;7.32;;;6.03;;
58472;SDS011;44775;51.564;5.460;2024-01-06T13:31:46;4.20;;;3.80;;
58472;SDS011;44775;51.564;5.460;2024-01-06T13:34:12;5.03;;;4.53;;
58472;SDS011;44775;51.564;5.460;2024-01-06T13:36:38;7.28;;;5.95;;
58472;SDS011;44775;51.564;5.460;2024-01-06T13:39:03;9.95;;;6.93;;
58472;SDS011;44775;51.564;5.460;2024-01-06T13:41:29;6.80;;;5.55;;
58472;SDS011;44775;51.564;5.460;2024-01-06T13:43:54;5.47;;;4.93;;
58472;SDS011;44775;51.564;5.460;2024-01-06T13:46:20;6.25;;;4.80;;
58472;SDS011;44775;51.564;5.460;2024-01-06T13:48:45;6.18;;;4.88;;
58472;SDS011;44775;51.564;5.460;2024-01-06T13:51:10;6.88;;;6.20;;
58472;SDS011;44775;51.564;5.460;2024-01-06T13:53:36;8.65;;;7.32;;
58472;SDS011;44775;51.564;5.460;2024-01-06T13:56:01;8.00;;;6.07;;
58472;SDS011;44775;51.564;5.460;2024-01-06T13:58:28;7.00;;;5.63;;
58472;SDS011;44775;51.564;5.460;2024-01-06T14:00:53;4.72;;;4.22;;
58472;SDS011;44775;51.564;5.460;2024-01-06T14:03:18;7.32;;;5.88;;
58472;SDS011;44775;51.564;5.460;2024-01-06T14:05:43;6.20;;;5.60;;
58472;SDS011;44775;51.564;5.460;2024-01-06T14:08:09;6.55;;;5.43;;
58472;SDS011;44775;51.564;5.460;2024-01-06T14:10:34;7.07;;;5.82;;
58472;SDS011;44775;51.564;5.460;2024-01-06T14:12:59;6.45;;;5.28;;
58472;SDS011;44775;51.564;5.460;2024-01-06T14:15:25;5.22;;;4.70;;
58472;SDS011;44775;51.564;5.460;2024-01-06T14:17:51;8.27;;;6.63;;
58472;SDS011;44775;51.564;5.460;2024-01-06T14:20:17;5.30;;;4.60;;
58472;SDS011;44775;51.564;5.460;2024-01-06T14:22:44;6.72;;;5.07;;
58472;SDS011;44775;51.564;5.460;2024-01-06T14:25:10;11.77;;;9.27;;
58472;SDS011;44775;51.564;5.460;2024-01-06T14:27:35;8.32;;;6.13;;
58472;SDS011;44775;51.564;5.460;2024-01-06T14:30:00;9.88;;;7.90;;
58472;SDS011;44775;51.564;5.460;2024-01-06T14:32:26;9.13;;;5.28;;
58472;SDS011;44775;51.564;5.460;2024-01-06T14:34:51;8.77;;;6.30;;
58472;SDS011;44775;51.564;5.460;2024-01-06T14:37:17;6.88;;;6.18;;
58472;SDS011;44775;51.564;5.460;2024-01-06T14:39:42;6.97;;;5.75;;
58472;SDS011;44775;51.564;5.460;2024-01-06T14:42:07;6.18;;;5.07;;
58472;SDS011;44775;51.564;5.460;2024-01-06T14:44:32;13.10;;;11.05;;